Tiempo atmosférico en la estación meteorológica de Écija, Sevilla (130 m.)



Fecha
DESCASC
Temp. máxima en grados centígrados (hora)
DESCASC
Temp. mínima en grados centígrados (hora)
DESCASC
Temp. media en grados centígrados
DESCASC
Racha de viento máxima en m/sg (hora)
DESCASC
Velocidad máxima media en intervalos de 10 minutos(hora)
DESCASC
Precipitaciones diarias en mm
DESCASC
Precipitaciones de 00:00 a 06:00 en mm
DESCASC
Precipitaciones de 06:00 a 12:00 en mm
DESCASC
Precipitaciones de 12:00 a 18:00 en mm
DESCASC
Precipitaciones de 18:00 a 24:00 en mm
DESCASC
14-02-2019 18.3 (14:20) 5.9 (08:30) 12.1 10.83 (15:30) 7.22 (15:30) 0 0 0 0 0
13-02-2019 19.2 (15:40) 5.7 (08:30) 12.5 7.78 (17:10) 5.83 (17:20) 0 0 0 0 0
12-02-2019 19.3 (14:30) 4.6 (06:10) 11.9 9.72 (15:50) 6.39 (15:50) 0 0 0 0 0
11-02-2019 18.9 (16:00) 7.6 (23:59) 13.2 3.61 (16:10) 2.22 (07:20) 0 0 0 0 0
10-02-2019 17.2 (16:20) 3.9 (00:00) 10.6 3.89 (22:20) 2.78 (22:20) 0 0 0 0 0
09-02-2019 18.2 (16:40) 1.4 (00:00) 9.8 4.44 (21:10) 3.33 (21:10) 0 0 0 0 0
08-02-2019 19.6 (16:30) 1.5 (00:00) 10.6 4.44 (20:00) 3.61 (20:30) 0 0 0 0 0
07-02-2019 20.6 (16:50) 2.9 (00:00) 11.8 3.33 (16:10) 2.22 (19:10) 0 0 0 0 0
06-02-2019 20.5 (16:00) 2 (06:10) 11.3 3.89 (16:30) 2.5 (18:50) 0 0 0 0 0
05-02-2019 20.1 (17:40) 0.2 (07:30) 10.2 6.11 (14:30) 3.61 (14:00) 0 0 0 0 0
04-02-2019 15.5 (16:20) -0.9 (-00:0) 7.3 6.39 (12:20) 4.72 (12:30) 0 0 0 0 0
03-02-2019 13.6 (17:10) 0.5 (00:00) 7.1 5.56 (21:00) 4.44 (21:10) 0 0 0 0 0
02-02-2019 13.5 (16:00) 5.3 (00:00) 9.4 11.67 (03:50) 8.33 (03:50) 0 0 0 0 0
01-02-2019 14.9 (15:00) 6.8 (00:00) 10.8 20.28 (18:10) 12.22 (03:40) 33 20.4 11.7 0.1 0.8
31-01-2019 16.7 (14:50) 11.8 (00:00) 14.3 14.72 (17:00) 10 (16:40) 5.2 2.5 0 0.1 2.6
30-01-2019 16.2 (16:00) 9.6 (00:00) 12.9 10.83 (16:30) 6.94 (17:10) 0.7 0 0 0 0.7
29-01-2019 14.9 (14:10) 6.8 (00:00) 10.8 9.17 (14:10) 6.11 (17:50) 0 0 0 0 0
28-01-2019 15.6 (15:20) 1.6 (00:00) 8.6 10 (16:30) 6.11 (15:50) 0 0 0 0 0
27-01-2019 15.6 (16:30) 7.5 (00:00) 11.6 10 (16:10) 6.67 (16:10) 0 0 0 0 0
26-01-2019 21 (16:40) 2.3 (00:00) 11.6 8.61 (21:50) 6.11 (21:40) 0 0 0 0 0
25-01-2019 19.9 (16:30) 3.5 (00:00) 11.7 9.17 (13:10) 5.83 (13:10) 0 0 0 0 0
24-01-2019 18.7 (16:50) 7.8 (00:00) 13.3 9.44 (00:50) 6.39 (00:50) 0 0 0 0 0
23-01-2019 17.2 (15:10) 7 (00:00) 12.1 13.33 (14:20) 9.17 (14:10) 0 0 0 0 0
22-01-2019 13.1 (17:20) 0 (00:00) 6.6 11.94 (23:20) 6.94 (23:20) 0 0 0 0 0
21-01-2019 15.7 (17:00) 0.7 (00:00) 8.2 5 (01:20) 3.89 (00:10) 0 0 0 0 0
20-01-2019 16.5 (15:30) 7 (00:00) 11.8 10.28 (05:10) 6.39 (01:50) 2.1 2.1 0 0 0
19-01-2019 11.9 (23:20) 7.3 (00:00) 9.6 9.44 (22:50) 5.83 (22:50) 5 0 0.3 1.7 3

Gráficas

Temp. máximas Temp. mínimas Temp. medias Precipitaciones Rachas de viento máximas Velocidades máximas media en intervalos de 10 minutos

Datos horarios

Fecha y hora oficial Temperatura (ºC) Velocidad del viento (km/h) Dirección del viento Racha (km/h) Dirección de racha Precipitación (mm) Presión (hPa) Tendencia (hPa) Humedad (%)
2019-02-17 23:00:00 9.7 8 Sudoeste 15 Sur 0 1005.3 0.9 68
2019-02-17 22:00:00 11.3 11 Sur 20 Sur 0 1004.9 0.9 61
2019-02-17 21:00:00 12.3 16 Sudoeste 23 Sudoeste 0 1004.6 1 56
2019-02-17 20:00:00 13.9 16 Sur 24 Sur 0 1004.4 0.5 51
2019-02-17 19:00:00 15.1 11 Sudoeste 27 Sur 0 1004 -0.4 45
2019-02-17 18:00:00 18.1 13 Sur 22 Sur 0 1003.6 -1.5 38
2019-02-17 17:00:00 19.7 13 Sur 20 Sur 0 1003.9 -2.3 35
2019-02-17 16:00:00 20 10 Sur 21 Sudeste 0 1004.4 -3 35
2019-02-17 15:00:00 19.6 16 Sudeste 26 Sur 0 1005.1 -3 37
2019-02-17 14:00:00 18.8 6 Sudeste 17 Sudeste 0 1006.2 -2.2 42
2019-02-17 13:00:00 17.6 8 Sudeste 23 Sudeste 0 1007.4 -1.2 44
2019-02-17 12:00:00 15.8 10 Este 20 Este 0 1008.1 -0.1 52
2019-02-17 11:00:00 12.8 8 Este 14 Este 0 1008.4 0.5 65
2019-02-17 10:00:00 9.5 0 Calma 4 Este 0 1008.6 1 73
2019-02-17 09:00:00 6.6 0 Calma 4 Este 0 1008.2 0.7 86
2019-02-17 08:00:00 4.8 4 Noroeste 5 Noroeste 0 1007.9 0.5 89
2019-02-17 07:00:00 5 0 Calma 7 Sur 0 1007.6 -0.2 89
2019-02-17 06:00:00 5.5 6 Sudeste 11 Este 0 1007.5 -0.5 89
2019-02-17 05:00:00 5.4 3 Sur 8 Sudeste 0 1007.4 -1 90
2019-02-17 04:00:00 5.6 3 Noroeste 9 Sudeste 0 1007.8 -0.7 89
2019-02-17 03:00:00 6.3 3 Sudeste 8 Sudeste 0 1008 -0.5 85
2019-02-17 02:00:00 6.7 0 Calma 10 Noroeste 0 1008.4 -0.1 83
2019-02-17 01:00:00 6.8 6 Noroeste 9 Noroeste 0 1008.5 0.5 82
2019-02-17 00:00:00 7.7 0 Calma 13 Sudoeste 0 1008.5 0.7 76
2019-02-16 23:00:00 10.2 7 Sudoeste 15 Sudoeste 0 1008.5 1.1 70
2019-02-16 22:00:00 11.1 12 Sur 20 Sudoeste 0 1008 1.1 65
2019-02-16 21:00:00 12.3 15 Sudoeste 20 Sudoeste 0 1007.8 1.5 55
2019-02-16 20:00:00 12.5 13 Sudoeste 18 Sudoeste 0 1007.4 1.2 53
2019-02-16 19:00:00 13.7 14 Sudoeste 26 Sur 0 1006.9 0.7 49
2019-02-16 18:00:00 16.9 18 Sur 29 Sur 0 1006.3 -0.4 43
2019-02-16 17:00:00 18.4 17 Sur 26 Sur 0 1006.2 -1.6 41
2019-02-16 16:00:00 19.8 9 Sur 18 Sudeste 0 1006.2 -2.6 36
2019-02-16 15:00:00 19.9 0 Calma 14 Oeste 0 1006.7 -2.4 38
2019-02-16 14:00:00 18.5 2 Norte 12 Sudeste 0 1007.8 -1.3 44
2019-02-16 13:00:00 16.1 5 Sudeste 10 Sudeste 0 1008.8 -0.2 50
2019-02-16 12:00:00 13.8 2 Este 6 Este 0 1009.1 0.7 67
2019-02-16 11:00:00 10.8 0 Calma 6 Sudeste 0 1009.1 1 80
2019-02-16 10:00:00 8.4 0 Calma 6 Sur 0 1009 1.3 90
2019-02-16 09:00:00 6.6 0 Calma 4 Oeste 0 1008.4 0.7 94
2019-02-16 08:00:00 5.7 0 Calma 5 Sur 0 1008.1 0.6 94
2019-02-16 07:00:00 5.1 0 Calma 4 Sudeste 0 1007.7 0.1 94
2019-02-16 06:00:00 5.7 0 Calma 5 Nordeste 0 1007.7 -0.2 94
2019-02-16 05:00:00 5.2 0 Calma 6 Sudoeste 0 1007.5 -0.6 92
2019-02-16 04:00:00 5.3 0 Calma 4 Noroeste 0 1007.6 -0.8 91
2019-02-16 03:00:00 5.9 0 Calma 5 Este 0 1007.9 -0.4 89
2019-02-16 02:00:00 6.6 0 Calma 4 Norte 0 1008.1 0.1 88
2019-02-16 01:00:00 6.8 0 Calma 3 Norte 0 1008.4 0.6 86
2019-02-16 00:00:00 7.6 0 Calma 4 Noroeste 0 1008.3 0.7 82
2019-02-15 23:00:00 8.7 0 Calma 6 Sur 0 1008 0.4 79
2019-02-15 22:00:00 9.4 6 Sur 12 Sur 0 1007.8 0.3 76
2019-02-15 21:00:00 10.6 9 Sur 19 Sudoeste 0 1007.6 0.4 68
2019-02-15 20:00:00 12.4 13 Sudoeste 20 Sudoeste 0 1007.6 0.6 61
2019-02-15 19:00:00 13.8 12 Sudoeste 20 Sur 0 1007.5 -0.3 57
2019-02-15 18:00:00 16.1 15 Sur 24 Sur 0 1007.2 -1.2 49
2019-02-15 17:00:00 19.3 8 Sudeste 19 Sudeste 0 1007 -2.5 41
2019-02-15 16:00:00 19.8 6 Sur 21 Sudeste 0 1007.8 -2.9 41
2019-02-15 15:00:00 18.8 12 Sudeste 26 Sudeste 0 1008.4 -3.2 43
2019-02-15 14:00:00 18.3 14 Sudeste 26 Sudeste 0 1009.5 -2.3 44
2019-02-15 13:00:00 17.1 15 Sudeste 27 Este 0 1010.7 -1.2 49
2019-02-15 12:00:00 15.8 18 Este 24 Este 0 1011.6 -0.5 53
2019-02-15 11:00:00 13.6 14 Este 20 Este 0 1011.8 0 62
2019-02-15 10:00:00 10.9 9 Sudeste 14 Sudeste 0 1011.9 0.4 73
2019-02-15 09:00:00 8 6 Sudeste 14 Sudeste 0 1012.1 0.6 81
2019-02-15 08:00:00 6.8 7 Sudeste 20 Este 0 1011.8 0.3 84
2019-02-15 07:00:00 7 4 Sudeste 12 Sudeste 0 1011.5 -0.3 84
2019-02-15 06:00:00 7.2 4 Sudeste 12 Este 0 1011.5 -0.7 87
2019-02-15 05:00:00 7.2 5 Sudeste 13 Este 0 1011.5 -1.1 88
2019-02-15 04:00:00 7.3 3 Sudeste 9 Sudeste 0 1011.8 -0.9 89
2019-02-15 03:00:00 7.4 3 Sur 9 Nordeste 0 1012.2 -0.5 87
2019-02-15 02:00:00 7 0 Calma 7 Sudoeste 0 1012.6 -0.3 82
2019-02-15 01:00:00 7.3 0 Calma 9 Este 0 1012.7 0.2 76
2019-02-15 00:00:00 8.2 3 Sudeste 9 Sudeste 0 1012.7 0.6 73
2019-02-14 23:00:00 9.4 5 Sur 9 Sur 0 1012.9 0.9 69
2019-02-14 22:00:00 9.9 3 Sudeste 15 Sudeste 0 1012.5 0.8 62
2019-02-14 21:00:00 11.6 4 Sudeste 19 Sur 0 1012.1 0.5 57
2019-02-14 20:00:00 11.7 8 Sur 14 Sur 0 1012 0.3 57
2019-02-14 19:00:00 13.7 5 Sur 31 Sur 0 1011.7 -0.2 49
2019-02-14 18:00:00 15.8 20 Sur 34 Sudeste 0 1011.6 -0.8 43
2019-02-14 17:00:00 17.1 24 Sur 37 Sur 0 1011.7 -1.5 40
2019-02-14 16:00:00 17.8 23 Sur 39 Sudeste 0 1011.9 -2 41
2019-02-14 15:00:00 17.7 25 Sur 37 Sudeste 0 1012.4 -2 42
2019-02-14 14:00:00 17.7 19 Sur 32 Sudoeste 0 1013.2 -1.2 44
2019-02-14 13:00:00 17.1 14 Sudeste 31 Sur 0 1013.9 -0.5 45
2019-02-14 12:00:00 16 16 Sudeste 27 Sudeste 0 1014.4 0.2 49
2019-02-14 11:00:00 14.7 13 Sur 23 Sur 0 1014.4 1 56
2019-02-14 10:00:00 12.1 7 Sudeste 12 Este 0 1014.4 0.9 69
2019-02-14 09:00:00 8 0 Calma 8 Sudeste 0 1014.2 1 85
2019-02-14 08:00:00 6.6 0 Calma 9 Este 0 1013.4 0.5 87
2019-02-14 07:00:00 6.8 2 Este 7 Sur 0 1013.5 0.3 87
2019-02-14 06:00:00 6.5 2 Sudeste 5 Este 0 1013.2 0.1 87
2019-02-14 05:00:00 6.7 0 Calma 5 Sudeste 0 1012.9 -0.4 86
2019-02-14 04:00:00 6.4 0 Calma 6 Noroeste 0 1013.2 -0.1 85
2019-02-14 03:00:00 6.9 4 Noroeste 6 Noroeste 0 1013.1 0 81
2019-02-14 02:00:00 6.7 0 Calma 4 Noroeste 0 1013.3 0 80
2019-02-14 01:00:00 6.2 0 Calma 5 Sur 0 1013.3 0.2 77
2019-02-14 00:00:00 7 2 Oeste 7 Sudoeste 0 1013.1 0.3 73
2019-02-13 23:00:00 7.9 3 Sur 12 Sudoeste 0 1013.3 0.6 68
2019-02-13 22:00:00 10 10 Sudoeste 23 Sur 0 1013.1 1 59
2019-02-13 21:00:00 11.3 12 Sur 18 Sudoeste 0 1012.8 1 55
2019-02-13 20:00:00 11.7 5 Sudoeste 19 Sur 0 1012.7 0.9 51
2019-02-13 19:00:00 14 12 Sur 25 Sur 0 1012.1 0.3 45
2019-02-13 18:00:00 16.4 20 Sur 28 Sur 0 1011.8 -0.3 39
2019-02-13 17:00:00 17.9 18 Sur 25 Sur 0 1011.8 -1.3 38
2019-02-13 16:00:00 18.9 14 Sur 24 Sudeste 0 1011.8 -2.1 37
2019-02-13 15:00:00 18.7 14 Sudeste 24 Sudeste 0 1012.1 -2.3 35
2019-02-13 14:00:00 17.8 12 Sudeste 22 Este 0 1013.1 -1.7 38
2019-02-13 13:00:00 16.4 10 Este 17 Este 0 1013.9 -0.7 43
2019-02-13 12:00:00 14.6 8 Este 14 Este 0 1014.4 0 53
2019-02-13 11:00:00 12.2 4 Este 10 Este 0 1014.8 0.7 66
2019-02-13 10:00:00 10.4 0 Calma 5 Sudeste 0 1014.6 0.7 76
2019-02-13 09:00:00 7.5 0 Calma 3 Sudeste 0 1014.4 0.7 89
2019-02-13 08:00:00 5.9 0 Calma 9 Sudeste 0 1014.1 0.3 89
2019-02-13 07:00:00 6 0 Calma 14 Sudeste 0 1013.9 0 87
2019-02-13 06:00:00 6.7 9 Sudeste 13 Sudeste 0 1013.7 -0.8 86
2019-02-13 05:00:00 7.4 2 Este 10 Este 0 1013.8 -0.8 86
2019-02-13 04:00:00 6.9 0 Calma 6 Norte 0 1013.9 -0.7 83
2019-02-13 03:00:00 8.5 4 Norte 6 Noroeste 0 1014.5 -0.3 79
2019-02-13 02:00:00 8.7 4 Noroeste 8 Norte 0 1014.6 -0.5 78
2019-02-13 01:00:00 8.9 0 Calma 10 Sur 0 1014.6 -0.2 72
2019-02-13 00:00:00 9.5 6 Sur 10 Sur 0 1014.8 0 71
2019-02-12 23:00:00 10.3 9 Sur 14 Sur 0 1015.1 0.6 70
2019-02-12 22:00:00 10.6 6 Sur 14 Sur 0 1014.8 0.7 67
2019-02-12 21:00:00 11.4 6 Sur 23 Sudeste 0 1014.8 1.1 61
2019-02-12 20:00:00 13.1 14 Sur 23 Sudeste 0 1014.5 1.2 54
2019-02-12 19:00:00 14.6 16 Sur 29 Sur 0 1014.1 1.1 48
2019-02-12 18:00:00 15.9 17 Sur 31 Sur 0 1013.7 0.5 45
2019-02-12 17:00:00 17.2 20 Sur 31 Sur 0 1013.3 -0.2 43
2019-02-12 16:00:00 18.2 22 Sur 35 Sur 0 1013 -1.2 42
2019-02-12 15:00:00 18.8 21 Sur 31 Sur 0 1013.2 -1.5 42
2019-02-12 14:00:00 19 16 Sur 27 Sudeste 0 1013.5 -1.2 43
2019-02-12 13:00:00 18.6 18 Sur 31 Sur 0 1014.2 -0.3 45
2019-02-12 12:00:00 16.3 10 Este 18 Sudeste 0 1014.7 0.6 56
2019-02-12 11:00:00 13.7 6 Este 12 Este 0 1014.7 1.3 68
2019-02-12 10:00:00 10.2 0 Calma 6 Este 0 1014.5 1.3 80
2019-02-12 09:00:00 7.3 3 Sur 7 Este 0 1014.1 1.1 94
2019-02-12 08:00:00 5.1 2 Sudoeste 4 Sur 0 1013.4 0.8 94
2019-02-12 07:00:00 5.2 0 Calma 6 Sur 0 1013.2 0.6 94
2019-02-12 06:00:00 5.1 3 Sur 5 Sudeste 0 1013 -0.3 94
2019-02-12 05:00:00 5 0 Calma 6 Noroeste 0 1012.6 -0.6 92
2019-02-12 04:00:00 5.1 0 Calma 4 Norte 0 1012.6 -0.5 91
2019-02-12 03:00:00 5.6 0 Calma 8 Sudoeste 0 1013.3 0.4 90
2019-02-12 02:00:00 6.4 6 Sudoeste 8 Sudoeste 0 1013.2 0.6 89
2019-02-12 01:00:00 7.2 0 Calma 4 Sudeste 0 1013.1 0.7 87
2019-02-12 00:00:00 7.7 0 Calma -- -- 0 1012.9 1 84
2019-02-11 23:00:00 8.7 0 Calma -- -- 0 1012.6 0.9 80
2019-02-11 22:00:00 9.7 0 Calma 4 Norte 0 1012.4 1.3 75
2019-02-11 21:00:00 11.1 2 Noroeste 4 Norte 0 1011.9 1.1 70
2019-02-11 20:00:00 12.8 3 Noroeste 5 Noroeste 0 1011.7 0.8 61
2019-02-11 19:00:00 15.1 0 Calma 9 Nordeste 0 1011.1 0 51
2019-02-11 18:00:00 17.6 5 Nordeste 12 Nordeste 0 1010.8 -0.6 44
2019-02-11 17:00:00 18.1 5 Nordeste 13 Nordeste 0 1010.9 -1.1 46
2019-02-11 16:00:00 18.9 2 Noroeste 11 Norte 0 1011.1 -1.7 46
2019-02-11 15:00:00 18.4 0 Calma 11 Sudoeste 0 1011.4 -1.8 51
2019-02-11 14:00:00 17 2 Norte 12 Nordeste 0 1012 -0.9 59
2019-02-11 13:00:00 15 6 Norte 12 Norte 0 1012.8 -0.1 68
2019-02-11 12:00:00 15 0 Calma 6 Noroeste 0 1013.2 0.7 76
2019-02-11 11:00:00 12.4 2 Sur 6 Sur 0 1012.9 0.9 92
2019-02-11 10:00:00 10.4 0 Calma 4 Sudoeste 0 1012.9 1.2 94
2019-02-11 09:00:00 8.6 0 Calma 3 Sudoeste 0 1012.5 0.8 92
2019-02-11 08:00:00 8.7 0 Calma 9 Sur 0 1012 0.3 89
2019-02-11 07:00:00 10 4 Sur 6 Sudoeste 0 1011.7 -0.3 88
2019-02-11 06:00:00 10.9 0 Calma 6 Sudoeste 0 1011.7 -0.3 87
2019-02-11 05:00:00 11 4 Sur 6 Sur 0 1011.7 -0.6 86
2019-02-11 04:00:00 10.8 0 Calma 4 Nordeste 0 1012 -0.1 81
2019-02-11 03:00:00 11.1 0 Calma 8 Sudeste 0 1012 -0.4 79
2019-02-11 02:00:00 11.3 0 Calma 8 Sur 0 1012.3 0.2 78
2019-02-11 01:00:00 11.6 6 Sur 9 Sur 0 1012.1 -0.1 74
2019-02-11 00:00:00 11.9 3 Sur 13 Oeste 0 1012.4 0.2 72
2019-02-10 23:00:00 12.2 3 Oeste 14 Sudoeste 0 1012.1 0.3 72
2019-02-10 22:00:00 12.8 7 Sudoeste 9 Sudoeste 0 1012.2 0.6 68
2019-02-10 21:00:00 12.1 0 Calma 9 Oeste 0 1012.2 0.8 70
2019-02-10 20:00:00 12.8 5 Sudoeste 8 Sudoeste 0 1011.8 0.5 64
2019-02-10 19:00:00 13.4 5 Oeste 10 Oeste 0 1011.6 0.4 62
2019-02-10 18:00:00 15.6 5 Oeste 9 Oeste 0 1011.4 -0.4 54
2019-02-10 17:00:00 16.5 3 Oeste 8 Sudoeste 0 1011.3 -0.7 47
2019-02-10 16:00:00 16.2 2 Sur 10 Sudoeste 0 1011.2 -1.6 48
2019-02-10 15:00:00 16 4 Sudoeste 10 Sudoeste 0 1011.8 -1.2 53
2019-02-10 14:00:00 15.2 3 Sudoeste 12 Sudeste 0 1012 -1.2 61
2019-02-10 13:00:00 12.9 2 Norte 5 Nordeste 0 1012.8 0.1 70
2019-02-10 12:00:00 11.7 2 Noroeste 8 Norte 0 1013 1.2 74
2019-02-10 11:00:00 9.5 0 Calma 6 Sudoeste 0 1013.2 2.2 86
2019-02-10 10:00:00 7.2 4 Sudoeste 5 Sudoeste 0 1012.7 2.2 95
2019-02-10 09:00:00 5.4 0 Calma 5 Norte 0 1011.8 1.8 94
2019-02-10 08:00:00 4.2 2 Noroeste 6 Norte 0 1011 1.3 94
2019-02-10 07:00:00 4.6 0 Calma 6 Sudeste 0 1010.5 0.7 94
2019-02-10 06:00:00 5.3 0 Calma 4 Sudoeste 0 1010 0.3 94
2019-02-10 05:00:00 4.8 0 Calma 4 Norte 0 1009.7 -0.2 92
2019-02-10 04:00:00 5.4 0 Calma 5 Sudeste 0 1009.8 0 92
2019-02-10 03:00:00 5.5 4 Sudeste 6 Sudeste 0 1009.7 -0.1 92
2019-02-10 02:00:00 5 3 Sudeste 10 Sudeste 0 1009.9 0.4 89
2019-02-10 01:00:00 6 5 Sur 8 Sur 0 1009.8 0.7 87
2019-02-10 00:00:00 6.6 0 Calma 9 Sudoeste 0 1009.8 1.1 82
2019-02-09 23:00:00 8.2 9 Sudoeste 13 Oeste 0 1009.5 1.3 79
2019-02-09 22:00:00 9.6 9 Oeste 16 Oeste 0 1009.1 1.5 74
2019-02-09 21:00:00 10.5 12 Oeste 16 Oeste 0 1008.7 1.2 70
2019-02-09 20:00:00 11.1 10 Oeste 14 Oeste 0 1008.2 0.6 63
2019-02-09 19:00:00 12.3 7 Oeste 10 Sudoeste 0 1007.6 -0.3 57
2019-02-09 18:00:00 16 5 Oeste 13 Oeste 0 1007.5 -0.9 50
2019-02-09 17:00:00 17.9 6 Oeste 13 Sudoeste 0 1007.6 -1.4 44
2019-02-09 16:00:00 17.7 6 Oeste 15 Oeste 0 1007.9 -1.8 46
2019-02-09 15:00:00 17.3 6 Oeste 13 Noroeste 0 1008.4 -1.8 51
2019-02-09 14:00:00 15.9 4 Norte 9 Nordeste 0 1009 -1.3 54
2019-02-09 13:00:00 14.5 0 Calma 8 Norte 0 1009.7 -0.3 58
2019-02-09 12:00:00 11.8 3 Nordeste 8 Este 0 1010.2 0.5 68
2019-02-09 11:00:00 8.8 0 Calma -- -- 0 1010.3 1.1 87
2019-02-09 10:00:00 5.2 0 Calma 3 Sur 0 1010 1.3 97
2019-02-09 09:00:00 2.1 0 Calma 4 Sudoeste 0 1009.7 1.2 97
2019-02-09 08:00:00 1.5 0 Calma 5 Noroeste 0 1009.2 0.7 96
2019-02-09 07:00:00 1.9 0 Calma 2 Este 0 1008.7 -0.1 94
2019-02-09 06:00:00 2.6 0 Calma 7 Sudoeste 0 1008.5 -0.1 94
2019-02-09 05:00:00 2.9 2 Sur 4 Sudoeste 0 1008.5 -0.4 93
2019-02-09 04:00:00 4.1 2 Sudoeste 5 Sur 0 1008.8 -0.1 92
2019-02-09 03:00:00 4.6 0 Calma 5 Sur 0 1008.6 -0.6 90
2019-02-09 02:00:00 5.2 3 Sur 5 Sudeste 0 1008.9 0 89
2019-02-09 01:00:00 6 3 Sur 5 Sudeste 0 1008.9 0.8 85
2019-02-09 00:00:00 6.9 2 Sudeste 12 Norte 0 1009.2 1.3 82
2019-02-08 23:00:00 7.1 0 Calma 7 Sudeste 0 1008.9 1.4 78
2019-02-08 22:00:00 9 3 Sudeste 15 Oeste 0 1008.1 1.3 71
2019-02-08 21:00:00 10.9 10 Oeste 16 Oeste 0 1007.9 1 67
2019-02-08 20:00:00 11.1 12 Oeste 16 Oeste 0 1007.5 0.5 64
2019-02-08 19:00:00 12.9 9 Oeste 12 Oeste 0 1006.8 -0.2 59
2019-02-08 18:00:00 17.1 8 Oeste 12 Oeste 0 1006.9 -0.8 46
2019-02-08 17:00:00 18.3 8 Oeste 13 Oeste 0 1007 -1.3 41
2019-02-08 16:00:00 19.3 4 Oeste 11 Oeste 0 1007 -2 38
2019-02-08 15:00:00 19.1 4 Oeste 9 Sudoeste 0 1007.7 -1.8 43
2019-02-08 14:00:00 17.4 3 Sudeste 6 Este 0 1008.3 -1.4 46
2019-02-08 13:00:00 15.3 0 Calma 8 Norte 0 1009 -0.7 53
2019-02-08 12:00:00 12.6 2 Nordeste 6 Este 0 1009.5 0.3 64
2019-02-08 11:00:00 9.8 0 Calma 6 Sudeste 0 1009.7 1.1 71
2019-02-08 10:00:00 6.5 2 Sudeste 5 Sudeste 0 1009.7 1.5 88
2019-02-08 09:00:00 3.2 0 Calma 3 Noroeste 0 1009.2 1 94
2019-02-08 08:00:00 2.3 0 Calma 4 Sudoeste 0 1008.6 0.2 94
2019-02-08 07:00:00 2.7 0 Calma 0 Calma 0 1008.2 -0.4 94
2019-02-08 06:00:00 3 0 Calma 5 Sur 0 1008.2 -0.6 93
2019-02-08 05:00:00 3 0 Calma 4 Nordeste 0 1008.4 -0.5 92
2019-02-08 04:00:00 4 2 Nordeste 5 Norte 0 1008.6 -0.2 91
2019-02-08 03:00:00 4.6 0 Calma 5 Sur 0 1008.8 -0.1 89
2019-02-08 02:00:00 5.5 4 Sudeste 6 Sur 0 1008.9 0.2 88
2019-02-08 01:00:00 6.1 0 Calma 5 Sur 0 1008.8 0.5 84
2019-02-08 00:00:00 6.8 0 Calma 5 Este 0 1008.9 0.9 82
2019-02-07 23:00:00 7.3 0 Calma 6 Sudeste 0 1008.7 0.9 78
2019-02-07 22:00:00 9.5 0 Calma 5 Sudoeste 0 1008.3 1 69
2019-02-07 21:00:00 10.5 0 Calma 4 Oeste 0 1008 0.9 65
2019-02-07 20:00:00 11.9 0 Calma 10 Oeste 0 1007.8 0.4 60
2019-02-07 19:00:00 13.6 7 Oeste 11 Oeste 0 1007.3 -0.2 54
2019-02-07 18:00:00 18.9 3 Sudoeste 8 Noroeste 0 1007.1 -1.1 45
2019-02-07 17:00:00 20.6 0 Calma 12 Oeste 0 1007.4 -1.5 35
2019-02-07 16:00:00 19.7 3 Norte 8 Norte 0 1007.5 -2.2 36
2019-02-07 15:00:00 19.1 2 Norte 12 Norte 0 1008.2 -2.2 41
2019-02-07 14:00:00 17.5 0 Calma 8 Este 0 1008.9 -1.8 46
2019-02-07 13:00:00 15.2 0 Calma 8 Este 0 1009.7 -0.6 52
2019-02-07 12:00:00 13.1 3 Este 9 Este 0 1010.4 0.6 60
2019-02-07 11:00:00 10.2 3 Este 5 Este 0 1010.7 1.2 73
2019-02-07 10:00:00 7.4 0 Calma 6 Sudoeste 0 1010.3 1.3 89
2019-02-07 09:00:00 4.5 3 Sudoeste 5 Sudoeste 0 1009.8 0.7 94
2019-02-07 08:00:00 3 2 Norte 3 Noroeste 0 1009.5 0.4 93
2019-02-07 07:00:00 4.3 0 Calma 5 Sudeste 0 1009 -0.5 93
2019-02-07 06:00:00 3.9 2 Sudeste 4 Sur 0 1009.1 -0.5 91
2019-02-07 05:00:00 4.6 3 Sur 6 Sur 0 1009.1 -0.6 91
2019-02-07 04:00:00 4.9 3 Sur 5 Sur 0 1009.5 -0.4 89
2019-02-07 03:00:00 5.7 3 Sur 7 Sudeste 0 1009.6 -0.1 88
2019-02-07 02:00:00 5.9 3 Sur 6 Sur 0 1009.7 0 86
2019-02-07 01:00:00 6.6 4 Sur 6 Sudeste 0 1009.9 0.6 84
2019-02-07 00:00:00 7.4 2 Sudeste 6 Sudeste 0 1009.7 0.3 81
2019-02-06 23:00:00 7.9 0 Calma 4 Sudeste 0 1009.7 0.8 75
2019-02-06 22:00:00 9.5 3 Sudeste 8 Sur 0 1009.3 0.6 68
2019-02-06 21:00:00 10.9 4 Sudoeste 9 Sudoeste 0 1009.4 0.9 64
2019-02-06 20:00:00 11.7 5 Sudoeste 12 Sudoeste 0 1008.9 0.4 62
2019-02-06 19:00:00 12.5 8 Oeste 12 Oeste 0 1008.7 0 57
2019-02-06 18:00:00 18.1 8 Oeste 11 Sudoeste 0 1008.5 -0.7 41
2019-02-06 17:00:00 19.6 8 Oeste 14 Noroeste 0 1008.5 -1.6 36
2019-02-06 16:00:00 20.5 4 Oeste 10 Oeste 0 1008.7 -2.3 34
2019-02-06 15:00:00 19.4 0 Calma 13 Sudoeste 0 1009.2 -2.4 36
2019-02-06 14:00:00 18.2 3 Oeste 9 Sudeste 0 1010.1 -2.1 37
2019-02-06 13:00:00 16.5 4 Este 12 Este 0 1011 -1.1 43
2019-02-06 12:00:00 13.8 0 Calma 8 Sur 0 1011.6 -0.3 57
2019-02-06 11:00:00 10.7 4 Nordeste 8 Nordeste 0 1012.2 0.8 63
2019-02-06 10:00:00 7.9 0 Calma 4 Sudeste 0 1012.1 0.8 75
2019-02-06 09:00:00 3.8 3 Sur 7 Sudeste 0 1011.9 0.6 92
2019-02-06 08:00:00 2.6 0 Calma 3 Sudeste 0 1011.4 0.2 92
2019-02-06 07:00:00 2.6 0 Calma 3 Noroeste 0 1011.3 -0.3 92
2019-02-06 06:00:00 2.3 0 Calma 5 Sudeste 0 1011.3 -0.3 89
2019-02-06 05:00:00 3.4 0 Calma 5 Sur 0 1011.2 -0.9 89
2019-02-06 04:00:00 3.6 0 Calma 2 Sudeste 0 1011.6 -0.5 87
2019-02-06 03:00:00 4.4 2 Sur 4 Sur 0 1011.6 -0.8 86
2019-02-06 02:00:00 5.3 2 Sudeste 6 Sudeste 0 1012.1 -0.1 83
2019-02-06 01:00:00 6 3 Sur 5 Sur 0 1012.1 -0.2 81
2019-02-06 00:00:00 6.2 0 Calma 5 Sur 0 1012.4 0.5 79
2019-02-05 23:00:00 7.3 0 Calma 5 Sudeste 0 1012.2 0.5 72
2019-02-05 22:00:00 8.6 0 Calma 6 Este 0 1012.3 0.9 65
2019-02-05 21:00:00 10.6 0 Calma 6 Noroeste 0 1011.9 0.7 56
2019-02-05 20:00:00 12 0 Calma 5 Sudoeste 0 1011.7 0.2 50
2019-02-05 19:00:00 14.5 0 Calma 5 Sudeste 0 1011.4 -0.3 41
2019-02-05 18:00:00 19.4 4 Sudeste 9 Nordeste 0 1011.2 -1.2 31
2019-02-05 17:00:00 19.7 6 Nordeste 15 Nordeste 0 1011.5 -1.6 28
2019-02-05 16:00:00 19.2 9 Nordeste 16 Este 0 1011.7 -2.1 30
2019-02-05 15:00:00 17.9 8 Este 22 Este 0 1012.4 -2.2 33
2019-02-05 14:00:00 16.3 13 Este 18 Este 0 1013.1 -1.6 36
2019-02-05 13:00:00 14.7 3 Norte 9 Nordeste 0 1013.8 -0.6 45
2019-02-05 12:00:00 11.7 2 Norte 8 Este 0 1014.6 0.7 54
2019-02-05 11:00:00 9 2 Este 6 Nordeste 0 1014.7 1.2 61
2019-02-05 10:00:00 5.5 0 Calma 5 Norte 0 1014.4 1.3 80
2019-02-05 09:00:00 2 0 Calma 0 Calma 0 1013.9 0.9 91
2019-02-05 08:00:00 0.2 0 Calma 3 Norte 0 1013.5 0.6 91
2019-02-05 07:00:00 0.7 0 Calma 0 Calma 0 1013.1 0.1 91
2019-02-05 06:00:00 0.7 0 Calma 0 Calma 0 1013 -0.1 90
2019-02-05 05:00:00 0.9 2 Norte 4 Sudeste 0 1012.9 -0.4 89
2019-02-05 04:00:00 1.1 0 Calma 3 Sudoeste 0 1013 -0.4 85
2019-02-05 03:00:00 2.2 3 Norte 5 Norte 0 1013.1 -0.2 84
2019-02-05 02:00:00 2.5 0 Calma 3 Este 0 1013.3 -0.2 79
2019-02-05 01:00:00 3.4 0 Calma 3 Sudeste 0 1013.4 -0.1 76
2019-02-05 00:00:00 4 0 Calma 4 Sudeste 0 1013.3 0.2 73
2019-02-04 23:00:00 5.1 0 Calma 4 Noroeste 0 1013.5 0.7 65
2019-02-04 22:00:00 6 2 Norte 4 Sudoeste 0 1013.5 1.2 59
2019-02-04 21:00:00 6.8 0 Calma 4 Norte 0 1013.1 0.9 56
2019-02-04 20:00:00 8.9 2 Noroeste 4 Oeste 0 1012.8 0.5 46
2019-02-04 19:00:00 10.5 0 Calma 10 Este 0 1012.3 -0.3 42
2019-02-04 18:00:00 14.2 8 Nordeste 16 Nordeste 0 1012.2 -0.9 32
2019-02-04 17:00:00 15 10 Nordeste 17 Nordeste 0 1012.3 -1.4 32
2019-02-04 16:00:00 15.2 8 Nordeste 19 Nordeste 0 1012.6 -2.1 32
2019-02-04 15:00:00 14.4 10 Nordeste 22 Nordeste 0 1013.1 -2.1 35
2019-02-04 14:00:00 13.1 12 Nordeste 19 Este 0 1013.7 -1.7 35
2019-02-04 13:00:00 11.4 15 Este 23 Este 0 1014.7 -0.8 41
2019-02-04 12:00:00 10 13 Nordeste 18 Nordeste 0 1015.2 0 46
2019-02-04 11:00:00 5.6 5 Este 9 Este 0 1015.4 0.7 71
2019-02-04 10:00:00 3.8 4 Este 6 Sudoeste 0 1015.5 1.1 73
2019-02-04 09:00:00 0.5 0 Calma 4 Sudoeste 0 1015.2 0.5 91
2019-02-04 08:00:00 -0.6 2 Sudoeste 4 Este 0 1014.7 0 92
2019-02-04 07:00:00 -0.6 0 Calma 4 Sudoeste 0 1014.4 -0.8 92
2019-02-04 06:00:00 -0.7 4 Sudoeste 8 Sudoeste 0 1014.7 -0.4 92
2019-02-04 05:00:00 -0.3 0 Calma 4 Sudoeste 0 1014.7 -0.4 91
2019-02-04 04:00:00 0.3 3 Sudoeste 5 Sudoeste 0 1015.2 -0.1 89
2019-02-04 03:00:00 0.3 0 Calma 3 Nordeste 0 1015.1 0.4 87
2019-02-04 02:00:00 1.1 0 Calma 4 Sudeste 0 1015.1 1 83
2019-02-04 01:00:00 2.5 2 Sudeste 6 Sudoeste 0 1015.3 1.8 77
2019-02-04 00:00:00 3.3 4 Sudoeste 11 Norte 0 1014.7 2 71
2019-02-03 23:00:00 5.5 9 Norte 14 Noroeste 0 1014.1 1.9 67
2019-02-03 22:00:00 5.9 5 Norte 19 Oeste 0 1013.5 1.8 67
2019-02-03 21:00:00 6.6 15 Oeste 20 Oeste 0 1012.7 1.6 65
2019-02-03 20:00:00 6.7 12 Noroeste 14 Noroeste 0 1012.2 1.1 65
2019-02-03 19:00:00 8.8 6 Noroeste 8 Noroeste 0 1011.7 0.6 53
2019-02-03 18:00:00 12.7 2 Norte 9 Nordeste 0 1011.1 -0.2 37
2019-02-03 17:00:00 13.4 4 Nordeste 12 Noroeste 0 1011.1 -0.9 37
2019-02-03 16:00:00 12.8 4 Nordeste 15 Nordeste 0 1011.1 -1 38
2019-02-03 15:00:00 12 7 Nordeste 17 Este 0 1011.3 -1.3 38
2019-02-03 14:00:00 11.3 7 Nordeste 17 Este 0 1012 -0.7 39
2019-02-03 13:00:00 10.1 6 Nordeste 14 Nordeste 0 1012.1 -0.2 51
2019-02-03 12:00:00 8.4 5 Este 9 Este 0 1012.6 0.8 62
2019-02-03 11:00:00 6.4 0 Calma 7 Este 0 1012.7 2.2 68
2019-02-03 10:00:00 3.4 6 Sudeste 8 Sudeste 0 1012.3 2.6 78
2019-02-03 09:00:00 1.2 5 Sudeste 8 Sudeste 0 1011.8 2.1 82
2019-02-03 08:00:00 1.4 0 Calma 9 Noroeste 0 1010.5 1.1 76
2019-02-03 07:00:00 2 5 Noroeste 9 Noroeste 0 1009.7 0.4 73
2019-02-03 06:00:00 2.2 11 Oeste 15 Noroeste 0 1009.7 1.2 73
2019-02-03 05:00:00 2.7 4 Norte 10 Noroeste 0 1009.4 0.9 69
2019-02-03 04:00:00 2.7 5 Sudoeste 10 Sudoeste 0 1009.3 1.5 67
2019-02-03 03:00:00 4 3 Este 19 Noroeste 0 1008.5 1.1 62
2019-02-03 02:00:00 4.3 14 Noroeste 18 Noroeste 0 1008.5 1.6 62
2019-02-03 01:00:00 4.9 12 Noroeste 18 Noroeste 0 1007.8 1.3 60
2019-02-03 00:00:00 5.4 14 Noroeste 22 Noroeste 0 1007.4 1.7 59
2019-02-02 23:00:00 5.9 16 Noroeste 22 Noroeste 0 1006.9 2.1 58
2019-02-02 22:00:00 5.9 15 Oeste 23 Noroeste 0 1006.5 2.5 56
2019-02-02 21:00:00 7.5 17 Noroeste 25 Noroeste 0 1005.7 2.8 51
2019-02-02 20:00:00 8.3 17 Noroeste 23 Noroeste 0 1004.8 2.5 49
2019-02-02 19:00:00 8.8 13 Noroeste 27 Noroeste 0 1004 2.2 48
2019-02-02 18:00:00 11.2 19 Noroeste 35 Noroeste 0 1002.9 1.8 43
2019-02-02 17:00:00 12.3 20 Noroeste 34 Noroeste 0 1002.3 1.5 41
2019-02-02 16:00:00 13.1 22 Noroeste 38 Noroeste 0 1001.8 1.1 38
2019-02-02 15:00:00 13.4 21 Noroeste 37 Norte 0 1001.1 0.5 41
2019-02-02 14:00:00 12.8 18 Noroeste 36 Norte 0 1000.8 1.1 42
2019-02-02 13:00:00 12.2 22 Noroeste 33 Noroeste 0 1000.7 2.1 45
2019-02-02 12:00:00 10.3 20 Noroeste 34 Noroeste 0 1000.6 3.3 50
2019-02-02 11:00:00 10 20 Noroeste 33 Oeste 0 999.7 3.2 58
2019-02-02 10:00:00 8.5 18 Oeste 32 Oeste 0 998.6 3.1 73
2019-02-02 09:00:00 6.1 18 Oeste 30 Oeste 0 997.3 1.8 84
2019-02-02 08:00:00 6.7 15 Oeste 35 Sudoeste 0 996.5 1.6 83
2019-02-02 07:00:00 7.1 23 Oeste 35 Oeste 0 995.5 0.7 83
2019-02-02 06:00:00 7 22 Oeste 40 Sudoeste 0 995.5 0.8 83
2019-02-02 05:00:00 7.2 19 Oeste 41 Sudoeste 0 994.9 0.6 83
2019-02-02 04:00:00 7 26 Oeste 42 Sudoeste 0 994.8 1.2 83
2019-02-02 03:00:00 6.4 27 Sudoeste 36 Sudoeste 0 994.7 1.4 83
2019-02-02 02:00:00 6.6 27 Sudoeste 40 Oeste 0 994.3 1.8 79
2019-02-02 01:00:00 6.4 18 Oeste 36 Sudoeste 0 993.6 1.6 76
2019-02-02 00:00:00 6.8 16 Oeste 41 Oeste 0 993.3 2.5 73
2019-02-01 23:00:00 7.4 19 Oeste 37 Oeste 0 992.5 2.6 72
2019-02-01 22:00:00 8.6 18 Oeste 32 Oeste 0 992 3.3 73
2019-02-01 21:00:00 8.6 15 Oeste 37 Oeste 0 990.8 3.8 74
2019-02-01 20:00:00 8.5 22 Oeste 40 Oeste 0 989.9 2.9 73
2019-02-01 19:00:00 8.8 27 Oeste 73 Noroeste 0.8 988.7 1.7 74
2019-02-01 18:00:00 12.3 22 Oeste 43 Sudoeste 0 987 -0.4 59
2019-02-01 17:00:00 12.8 24 Oeste 51 Sudoeste 0 987 -0.8 59
2019-02-01 16:00:00 13.4 24 Oeste 50 Oeste 0 987 -1.5 52
2019-02-01 15:00:00 14.5 24 Oeste 44 Oeste 0 987.4 -1.7 50
2019-02-01 14:00:00 14.7 26 Oeste 49 Oeste 0 987.8 -0.8 51
2019-02-01 13:00:00 13.9 29 Oeste 47 Oeste 0.1 988.5 0.3 56
2019-02-01 12:00:00 12.7 26 Oeste 41 Oeste 0.3 989.1 2.1 75
2019-02-01 11:00:00 11.2 20 Oeste 40 Oeste 0.3 988.6 2.4 82
2019-02-01 10:00:00 11.7 16 Oeste 37 Oeste 0 988.2 3.2 73
2019-02-01 09:00:00 11.4 17 Oeste 44 Noroeste 0 987 2.6 84
2019-02-01 08:00:00 12.7 28 Noroeste 44 Oeste 0.2 986.2 0.8 93
2019-02-01 07:00:00 13.1 27 Oeste 66 Sudoeste 10.9 985 -1.9 95
2019-02-01 06:00:00 13.5 36 Sudoeste 67 Oeste 6.2 984.4 -3.3 94
2019-02-01 05:00:00 13.6 37 Sudoeste 71 Sudoeste 6 985.4 -3.7 94
2019-02-01 04:00:00 13.2 39 Sudoeste 62 Sudoeste 5 986.9 -3.5 93
2019-02-01 03:00:00 13.3 36 Sudoeste 58 Sudoeste 2.2 987.7 -3.1 93
2019-02-01 02:00:00 13 31 Sudoeste 57 Sudoeste 0.8 989.1 -3 92
2019-02-01 01:00:00 13.2 31 Sudoeste 56 Sudoeste 0.2 990.4 -2.6 91
2019-02-01 00:00:00 12.9 31 Sudoeste 49 Sudoeste 0.8 990.8 -2.4 92
2019-01-31 23:00:00 12.9 27 Sudoeste 46 Sudoeste 0.1 992.1 -1.7 91
2019-01-31 22:00:00 12.8 27 Sudoeste 47 Sudoeste 0 993 -0.9 92
2019-01-31 21:00:00 12.2 24 Sudoeste 40 Sudoeste 1.2 993.2 -1 93
2019-01-31 20:00:00 12.6 25 Sudoeste 43 Sudoeste 0.4 993.8 -0.2 91
2019-01-31 19:00:00 12.7 31 Sudoeste 45 Sudoeste 0.1 993.9 -0.3 87
2019-01-31 18:00:00 12.9 26 Sudoeste 48 Sudoeste 0.1 994.2 -0.4 87
2019-01-31 17:00:00 15 33 Sudoeste 53 Sudoeste 0 994 -1.6 66
2019-01-31 16:00:00 16.4 26 Oeste 53 Sudoeste 0 994.2 -2.5 62
2019-01-31 15:00:00 16 21 Oeste 47 Sudoeste 0 994.6 -2.3 66
2019-01-31 14:00:00 15.1 25 Sudoeste 40 Sudoeste 0 995.6 -1.6 75
2019-01-31 13:00:00 14.9 23 Oeste 39 Oeste 0 996.7 0 78
2019-01-31 12:00:00 14.1 22 Oeste 40 Sudoeste 0 996.9 0.9 84
2019-01-31 11:00:00 13.1 17 Oeste 36 Sudoeste 0 997.2 1.2 90
2019-01-31 10:00:00 12.7 23 Sudoeste 39 Sudoeste 0 996.7 1.1 92
2019-01-31 09:00:00 12.5 26 Sudoeste 44 Sudoeste 0 996 0 92
2019-01-31 08:00:00 12.6 18 Oeste 34 Oeste 0 996 -0.4 92
2019-01-31 07:00:00 12.3 23 Sudoeste 36 Sudoeste 0 995.6 -1.4 93
2019-01-31 06:00:00 12.3 20 Oeste 43 Oeste 0 996 -1.3 93
2019-01-31 05:00:00 12.1 19 Oeste 42 Oeste 0.1 996.4 -1.4 93
2019-01-31 04:00:00 11.9 19 Oeste 42 Oeste 0.6 997 -1.1 93
2019-01-31 03:00:00 11.9 19 Oeste 39 Oeste 0.9 997.3 -1.4 93
2019-01-31 02:00:00 12 19 Oeste 37 Sudoeste 0.8 997.8 -1.5 93
2019-01-31 01:00:00 12 19 Oeste 32 Sudoeste 0.1 998.1 -1 93
2019-01-31 00:00:00 11.8 13 Oeste 27 Sudoeste 0 998.7 -1.2 93
2019-01-30 23:00:00 11.4 16 Sudoeste 25 Sudoeste 0 999.3 -0.9 94
2019-01-30 22:00:00 10.3 10 Sudoeste 20 Sudoeste 0 999.1 -1.4 93
2019-01-30 21:00:00 10.5 12 Sudoeste 24 Sudoeste 0 999.9 -0.3 91
2019-01-30 20:00:00 9.8 14 Sudoeste 34 Oeste 0.3 1000.2 0 87
2019-01-30 19:00:00 10.1 22 Sudoeste 35 Sudoeste 0.4 1000.5 0.4 83
2019-01-30 18:00:00 11.4 25 Sudoeste 37 Sudoeste 0 1000.2 -0.4 75
2019-01-30 17:00:00 13.7 23 Sudoeste 39 Oeste 0 1000.2 -1.1 55
2019-01-30 16:00:00 16 14 Oeste 27 Oeste 0 1000.1 -2.4 45
2019-01-30 15:00:00 15.5 13 Oeste 26 Oeste 0 1000.6 -2.2 46
2019-01-30 14:00:00 15 10 Noroeste 24 Noroeste 0 1001.3 -1.8 46
2019-01-30 13:00:00 14.2 14 Noroeste 27 Noroeste 0 1002.5 -0.6 50
2019-01-30 12:00:00 13.5 13 Noroeste 22 Norte 0 1002.8 0.2 53
2019-01-30 11:00:00 11.7 13 Noroeste 20 Noroeste 0 1003.1 0.9 66
2019-01-30 10:00:00 10.3 9 Noroeste 18 Oeste 0 1003.1 1.7 87
2019-01-30 09:00:00 10.1 12 Oeste 18 Oeste 0 1002.6 1 87
2019-01-30 08:00:00 10.1 12 Oeste 23 Oeste 0 1002.2 1 86
2019-01-30 07:00:00 10.4 14 Oeste 31 Oeste 0 1001.4 -0.4 84
2019-01-30 06:00:00 10.4 18 Oeste 32 Oeste 0 1001.6 -0.5 84
2019-01-30 05:00:00 10.3 22 Sudoeste 31 Sudoeste 0 1001.2 -1.3 83
2019-01-30 04:00:00 10.3 20 Sudoeste 33 Oeste 0 1001.8 -1.3 81
2019-01-30 03:00:00 10.1 12 Oeste 29 Oeste 0 1002.1 -1.1 79
2019-01-30 02:00:00 10.5 14 Oeste 31 Oeste 0 1002.5 -1.3 74
2019-01-30 01:00:00 11.1 17 Oeste 32 Oeste 0 1003.1 -0.6 69
2019-01-30 00:00:00 11.4 13 Oeste 26 Oeste 0 1003.2 -0.5 68
2019-01-29 23:00:00 12 17 Oeste 28 Sudoeste 0 1003.8 0.5 65
2019-01-29 22:00:00 12.2 14 Oeste 29 Sudoeste 0 1003.7 0.5 62
2019-01-29 21:00:00 12.4 12 Oeste 29 Oeste 0 1003.7 0.2 58
2019-01-29 20:00:00 13.1 13 Oeste 23 Oeste 0 1003.3 -0.2 56
2019-01-29 19:00:00 13.5 11 Oeste 25 Oeste 0 1003.2 -0.5 54
2019-01-29 18:00:00 14.3 17 Noroeste 32 Oeste 0 1003.5 -0.9 53
2019-01-29 17:00:00 14.4 15 Oeste 29 Oeste 0 1003.5 -1.6 57
2019-01-29 16:00:00 14.7 13 Oeste 32 Oeste 0 1003.7 -3.1 56
2019-01-29 15:00:00 14.1 15 Oeste 33 Sudoeste 0 1004.4 -2.9 56
2019-01-29 14:00:00 14.8 17 Oeste 31 Oeste 0 1005.1 -2.1 57
2019-01-29 13:00:00 13.2 18 Oeste 33 Oeste 0 1006.8 -0.3 62
2019-01-29 12:00:00 12 16 Oeste 26 Oeste 0 1007.3 0.7 70
2019-01-29 11:00:00 10.5 18 Sudoeste 29 Sudoeste 0 1007.2 0.7 86
2019-01-29 10:00:00 7.8 20 Sudoeste 28 Sudoeste 0 1007.1 1 95
2019-01-29 09:00:00 7.3 16 Sudoeste 23 Sudoeste 0 1006.6 0 94
2019-01-29 08:00:00 7.2 2 Sudeste 21 Oeste 0 1006.5 0.4 91
2019-01-29 07:00:00 7.6 3 Noroeste 10 Oeste 0 1006.1 -0.4 91
2019-01-29 06:00:00 7.5 0 Calma 10 Este 0 1006.6 0 91
2019-01-29 05:00:00 7.1 6 Sudeste 17 Sudoeste 0 1006.1 -0.1 89
2019-01-29 04:00:00 7.8 12 Sudoeste 21 Sudoeste 0 1006.5 -0.2 87
2019-01-29 03:00:00 8.8 13 Sudoeste 28 Sudoeste 0 1006.6 -0.1 83
2019-01-29 02:00:00 9.2 18 Sudoeste 25 Sudoeste 0 1006.2 -0.4 80
2019-01-29 01:00:00 8.9 14 Oeste 21 Sudoeste 0 1006.7 0.3 76
2019-01-29 00:00:00 9.3 12 Oeste 21 Oeste 0 1006.7 0.2 74
2019-01-28 23:00:00 9.2 10 Oeste 22 Oeste 0 1006.6 -0.2 71
2019-01-28 22:00:00 10 15 Oeste 26 Oeste 0 1006.4 0.1 64
2019-01-28 21:00:00 11.3 15 Oeste 24 Oeste 0 1006.5 0.4 57
2019-01-28 20:00:00 12.7 19 Oeste 26 Oeste 0 1006.8 0.9 54
2019-01-28 19:00:00 13.6 15 Oeste 29 Oeste 0 1006.3 0.4 51
2019-01-28 18:00:00 13.9 20 Oeste 36 Oeste 0 1006.1 -0.1 50
2019-01-28 17:00:00 14.3 19 Oeste 36 Sudoeste 0 1005.9 -1.2 47
2019-01-28 16:00:00 15.4 19 Oeste 35 Oeste 0 1005.9 -2.2 44
2019-01-28 15:00:00 15.2 16 Oeste 33 Oeste 0 1006.2 -2.3 45
2019-01-28 14:00:00 13.7 15 Oeste 28 Oeste 0 1007.1 -1.4 48
2019-01-28 13:00:00 12.7 10 Oeste 18 Oeste 0 1008.1 -0.7 50
2019-01-28 12:00:00 11.7 5 Oeste 13 Oeste 0 1008.5 0.2 54
2019-01-28 11:00:00 9.4 6 Sur 13 Sudoeste 0 1008.5 0.7 66
2019-01-28 10:00:00 4.9 5 Sudeste 8 Sudeste 0 1008.8 1 83
2019-01-28 09:00:00 2 2 Este 9 Oeste 0 1008.3 1 88
2019-01-28 08:00:00 1.8 4 Sudeste 8 Sudeste 0 1007.8 1 87
2019-01-28 07:00:00 2.3 3 Sudeste 8 Este 0 1007.8 0.7 82
2019-01-28 06:00:00 3.9 3 Noroeste 14 Oeste 0 1007.3 0.3 75
2019-01-28 05:00:00 6.1 11 Oeste 25 Oeste 0 1006.8 0.1 69
2019-01-28 04:00:00 5.7 17 Oeste 24 Oeste 0 1007.1 0.3 70
2019-01-28 03:00:00 6.5 18 Oeste 25 Oeste 0 1007 0.7 67
2019-01-28 02:00:00 6.6 18 Oeste 26 Oeste 0 1006.7 0.9 67
2019-01-28 01:00:00 7 17 Oeste 26 Oeste 0 1006.8 0.9 65
2019-01-28 00:00:00 7.6 17 Oeste 24 Oeste 0 1006.3 1.1 60
2019-01-27 23:00:00 8.7 16 Oeste 24 Oeste 0 1005.8 1.1 54
2019-01-27 22:00:00 8.9 17 Oeste 22 Oeste 0 1005.9 1.5 54
2019-01-27 21:00:00 9.1 15 Oeste 18 Oeste 0 1005.2 1 53
2019-01-27 20:00:00 10.3 13 Oeste 18 Noroeste 0 1004.7 1.2 49
2019-01-27 19:00:00 12.1 14 Noroeste 26 Noroeste 0 1004.4 1 46
2019-01-27 18:00:00 14.5 18 Noroeste 26 Noroeste 0 1004.2 0.7 46
2019-01-27 17:00:00 15.1 17 Noroeste 36 Noroeste 0 1003.5 -0.7 45
2019-01-27 16:00:00 14.5 23 Noroeste 33 Noroeste 0 1003.4 -1.5 49
2019-01-27 15:00:00 14.3 12 Oeste 24 Oeste 0 1003.5 -1.3 53
2019-01-27 14:00:00 14.1 12 Oeste 22 Oeste 0 1004.2 0.1 58
2019-01-27 13:00:00 12.1 11 Oeste 21 Oeste 0 1004.9 0.9 70
2019-01-27 12:00:00 11.4 9 Oeste 20 Oeste 0 1004.8 1.2 80
2019-01-27 11:00:00 10.7 7 Oeste 23 Oeste 0 1004.1 1.5 91
2019-01-27 10:00:00 10 19 Oeste 33 Oeste 0 1004 1.1 94
2019-01-27 09:00:00 9.7 5 Oeste 12 Oeste 0 1003.6 0.4 92
2019-01-27 08:00:00 8.2 0 Calma 11 Sur 0 1002.6 -0.9 91
2019-01-27 07:00:00 7.8 7 Sur 10 Sur 0 1002.9 -1.2 89
2019-01-27 06:00:00 9.6 0 Calma 12 Sudoeste 0 1003.2 -1 89
2019-01-27 05:00:00 10.7 6 Sudoeste 13 Sudoeste 0 1003.5 -0.5 89
2019-01-27 04:00:00 10.8 6 Sudoeste 10 Sudoeste 0 1004.1 -0.4 89
2019-01-27 03:00:00 11.4 4 Sur 26 Sudoeste 0 1004.2 -0.3 89
2019-01-27 02:00:00 11.5 12 Sudoeste 22 Oeste 0 1004 -0.5 89
2019-01-27 01:00:00 11.5 8 Sudoeste 21 Sudoeste 0 1004.5 0.4 95
2019-01-27 00:00:00 11.4 11 Sudoeste 23 Sudoeste 0 1004.5 0.2 95
2019-01-26 23:00:00 11.1 15 Sudoeste 25 Sudoeste 0 1004.5 0.7 91
2019-01-26 22:00:00 11.8 16 Oeste 31 Oeste 0 1004.1 0.7 73
2019-01-26 21:00:00 12.6 12 Oeste 23 Sudoeste 0 1004.3 1 54
2019-01-26 20:00:00 11.7 13 Oeste 18 Oeste 0 1003.8 0.4 54
2019-01-26 19:00:00 13.2 9 Oeste 12 Oeste 0 1003.4 0 49
2019-01-26 18:00:00 17.7 8 Oeste 10 Oeste 0 1003.3 -0.9 41
2019-01-26 17:00:00 20.7 0 Calma 6 Sudoeste 0 1003.4 -1.7 32
2019-01-26 16:00:00 20.2 0 Calma 10 Sur 0 1003.4 -2.3 33
2019-01-26 15:00:00 19.7 2 Nordeste 11 Nordeste 0 1004.2 -2.3 35
2019-01-26 14:00:00 18.1 5 Nordeste 14 Este 0 1005.1 -1.7 38
2019-01-26 13:00:00 16.2 8 Este 15 Este 0 1005.7 -0.4 43
2019-01-26 12:00:00 12.8 4 Nordeste 9 Este 0 1006.5 0.8 58
2019-01-26 11:00:00 10.2 3 Este 13 Norte 0 1006.8 1.5 68
2019-01-26 10:00:00 7.1 10 Norte 14 Norte 0 1006.1 1.3 82
2019-01-26 09:00:00 3.4 3 Norte 6 Norte 0 1005.7 1.3 90
2019-01-26 08:00:00 3.4 4 Oeste 5 Oeste 0 1005.3 0.9 90
2019-01-26 07:00:00 4.1 2 Sudoeste 5 Oeste 0 1004.8 0.5 91
2019-01-26 06:00:00 4.2 3 Sur 5 Sudoeste 0 1004.4 0 91
2019-01-26 05:00:00 4.6 4 Sudoeste 6 Sudoeste 0 1004.4 -0.1 90
2019-01-26 04:00:00 4.6 0 Calma 6 Sur 0 1004.3 -0.3 89
2019-01-26 03:00:00 5 4 Sudeste 6 Sudeste 0 1004.4 -0.1 88
2019-01-26 02:00:00 5.8 3 Sudoeste 6 Sudoeste 0 1004.5 0.3 86
2019-01-26 01:00:00 6.2 0 Calma 4 Sur 0 1004.6 0.5 84
2019-01-26 00:00:00 6.9 0 Calma 8 Sur 0 1004.5 0.8 79
2019-01-25 23:00:00 8.2 2 Sudeste 6 Sudoeste 0 1004.2 1 77
2019-01-25 22:00:00 9.1 0 Calma 11 Sudoeste 0 1004.1 1.4 71
2019-01-25 21:00:00 11.1 6 Noroeste 8 Noroeste 0 1003.7 1.4 63
2019-01-25 20:00:00 11.9 3 Norte 6 Norte 0 1003.2 0.8 56
2019-01-25 19:00:00 14.4 0 Calma 8 Nordeste 0 1002.7 0 48
2019-01-25 18:00:00 18.2 5 Nordeste 14 Nordeste 0 1002.3 -0.4 38
2019-01-25 17:00:00 19.8 6 Nordeste 19 Nordeste 0 1002.4 -0.7 36
2019-01-25 16:00:00 19.6 11 Nordeste 24 Este 0 1002.7 -1.1 36
2019-01-25 15:00:00 19 17 Este 27 Este 0 1002.7 -1.8 38
2019-01-25 14:00:00 17.8 15 Nordeste 33 Nordeste 0 1003.1 -1.3 40
2019-01-25 13:00:00 16.8 19 Nordeste 27 Nordeste 0 1003.8 -0.3 46
2019-01-25 12:00:00 13.2 7 Norte 12 Norte 0 1004.5 1.1 73
2019-01-25 11:00:00 9.6 2 Norte 5 Norte 0 1004.4 1.6 85
2019-01-25 10:00:00 6.8 0 Calma 4 Este 0 1004.1 1.9 95
2019-01-25 09:00:00 4.1 0 Calma 4 Noroeste 0 1003.4 1.9 96
2019-01-25 08:00:00 4.3 4 Noroeste 5 Noroeste 0 1002.8 1.2 95
2019-01-25 07:00:00 4.4 0 Calma 4 Sudeste 0 1002.2 0.5 95
2019-01-25 06:00:00 4.9 0 Calma 4 Sur 0 1001.5 -0.1 95
2019-01-25 05:00:00 5.4 2 Sur 5 Sudoeste 0 1001.6 0.1 95
2019-01-25 04:00:00 5 0 Calma 9 Sudoeste 0 1001.7 0 94
2019-01-25 03:00:00 5.9 4 Sur 8 Sudeste 0 1001.6 0 93
2019-01-25 02:00:00 6.5 0 Calma -- -- 0 1001.5 0.5 91
2019-01-25 01:00:00 7.1 0 Calma 4 Sudoeste 0 1001.7 1.3 89
2019-01-25 00:00:00 7.9 4 Sur 8 Sudeste 0 1001.6 1.7 87
2019-01-24 23:00:00 8.5 6 Sudeste 10 Sudeste 0 1001 1.6 84
2019-01-24 22:00:00 9.1 5 Sudeste 9 Sudeste 0 1000.4 1.3 79
2019-01-24 21:00:00 10.5 0 Calma 11 Sudoeste 0 999.9 1.4 76
2019-01-24 20:00:00 12.1 7 Sudoeste 11 Sudoeste 0 999.4 1.2 68
2019-01-24 19:00:00 13.9 6 Sudoeste 10 Sudoeste 0 999.1 0.7 60
2019-01-24 18:00:00 17 4 Sur 9 Oeste 0 998.5 0.3 50
2019-01-24 17:00:00 18.5 4 Oeste 11 Sudoeste 0 998.2 -0.2 47
2019-01-24 16:00:00 17.9 0 Calma 15 Sudoeste 0 998.4 -0.6 49
2019-01-24 15:00:00 17.8 8 Sudoeste 18 Sudoeste 0 998.2 -1.1 52
2019-01-24 14:00:00 15.3 9 Sudoeste 16 Oeste 0 998.4 -0.8 60
2019-01-24 13:00:00 14.5 9 Oeste 19 Sudoeste 0 999 0.6 66
2019-01-24 12:00:00 13.1 8 Oeste 18 Oeste 0 999.3 1.2 76
2019-01-24 11:00:00 11.5 8 Oeste 20 Oeste 0 999.2 1.2 83
2019-01-24 10:00:00 11 12 Oeste 22 Oeste 0 998.4 0.8 85
2019-01-24 09:00:00 10.5 12 Oeste 26 Oeste 0 998.1 0.7 85
2019-01-24 08:00:00 10.4 15 Oeste 30 Sudoeste 0 998 0.3 86
2019-01-24 07:00:00 10.3 17 Sudoeste 31 Sudoeste 0 997.6 -0.6 85
2019-01-24 06:00:00 10.4 15 Oeste 31 Sudoeste 0 997.4 -1.3 83
2019-01-24 05:00:00 10.7 13 Oeste 30 Sudoeste 0 997.7 -1.1 82
2019-01-24 04:00:00 10.8 19 Sudoeste 30 Oeste 0 998.2 -0.9 81
2019-01-24 03:00:00 11.1 15 Oeste 27 Oeste 0 998.7 -0.6 79
2019-01-24 02:00:00 10.5 17 Oeste 33 Oeste 0 998.8 -0.5 79
2019-01-24 01:00:00 10.9 17 Oeste 34 Oeste 0 999.1 -0.1 76
2019-01-24 00:00:00 10.8 12 Oeste 26 Sudoeste 0 999.3 0.1 73
2019-01-23 23:00:00 11.1 11 Oeste 28 Oeste 0 999.3 0.3 67
2019-01-23 22:00:00 11.4 18 Oeste 28 Oeste 0 999.2 0.8 65
2019-01-23 21:00:00 11.9 15 Oeste 29 Oeste 0 999.2 0.9 64
2019-01-23 20:00:00 12.1 17 Sudoeste 25 Sudoeste 0 999 0.4 59
2019-01-23 19:00:00 13.5 17 Oeste 42 Noroeste 0 998.4 0.1 53
2019-01-23 18:00:00 14.9 30 Noroeste 45 Noroeste 0 998.3 -0.5 49
2019-01-23 17:00:00 15.7 31 Noroeste 45 Noroeste 0 998.6 -0.8 48
2019-01-23 16:00:00 16.5 29 Noroeste 48 Noroeste 0 998.3 -2.2 46
2019-01-23 15:00:00 16.9 28 Noroeste 48 Noroeste 0 998.8 -2.7 45
2019-01-23 14:00:00 16.2 29 Noroeste 42 Oeste 0 999.4 -2.2 48
2019-01-23 13:00:00 15 21 Oeste 41 Oeste 0 1000.5 -0.7 51
2019-01-23 12:00:00 13.6 22 Oeste 32 Oeste 0 1001.5 -0.3 61
2019-01-23 11:00:00 12.1 13 Oeste 27 Oeste 0 1001.6 -0.1 67
2019-01-23 10:00:00 8.8 12 Oeste 22 Sudoeste 0 1001.2 -0.3 80
2019-01-23 09:00:00 8.1 14 Oeste 23 Oeste 0 1001.8 0.1 81
2019-01-23 08:00:00 7.3 8 Oeste 17 Sudoeste 0 1001.7 -0.2 82
2019-01-23 07:00:00 7.8 13 Oeste 25 Oeste 0 1001.5 -0.8 82
2019-01-23 06:00:00 7.6 12 Oeste 21 Oeste 0 1001.7 -1.2 86
2019-01-23 05:00:00 7.2 13 Sudoeste 18 Sudoeste 0 1001.9 -0.9 88
2019-01-23 04:00:00 7.6 8 Oeste 21 Oeste 0 1002.3 0 89
2019-01-23 03:00:00 7.7 15 Oeste 24 Oeste 0 1002.9 0.1 89
2019-01-23 02:00:00 8.2 16 Oeste 29 Oeste 0 1002.8 -0.2 86
2019-01-23 01:00:00 8.8 18 Oeste 33 Oeste 0 1002.3 -1 82
2019-01-23 00:00:00 9.2 15 Oeste 43 Oeste 0 1002.8 -0.9 76
2019-01-22 23:00:00 9.8 18 Oeste 36 Oeste 0 1003 -0.7 69
2019-01-22 22:00:00 10.1 14 Oeste 29 Sudoeste 0 1003.3 -0.3 65
2019-01-22 21:00:00 10.1 17 Oeste 27 Oeste 0 1003.7 0 62
2019-01-22 20:00:00 10.5 17 Oeste 26 Oeste 0 1003.7 -0.2 58
2019-01-22 19:00:00 10.7 18 Oeste 31 Oeste 0 1003.6 -0.6 55
2019-01-22 18:00:00 11.8 15 Oeste 28 Noroeste 0 1003.7 -0.5 51
2019-01-22 17:00:00 12.6 18 Noroeste 27 Oeste 0 1003.9 -1.3 50
2019-01-22 16:00:00 12.1 13 Noroeste 26 Oeste 0 1004.2 -2.3 52
2019-01-22 15:00:00 12.3 14 Oeste 24 Oeste 0 1004.2 -2.7 53
2019-01-22 14:00:00 11.6 10 Oeste 23 Oeste 0 1005.2 -2.4 56
2019-01-22 13:00:00 10.1 12 Oeste 19 Oeste 0 1006.5 -0.9 61
2019-01-22 12:00:00 8.7 6 Sudoeste 9 Sudoeste 0 1006.9 -0.2 76
2019-01-22 11:00:00 3.4 3 Sudeste 8 Sudeste 0 1007.6 0.5 92
2019-01-22 10:00:00 2.3 3 Sur 6 Sur 0 1007.4 0.5 95
2019-01-22 09:00:00 0.8 5 Sur 7 Sur 0 1007.1 0 95
2019-01-22 08:00:00 0.2 0 Calma 5 Sur 0 1007.1 -0.3 95
2019-01-22 07:00:00 0.2 4 Sur 7 Sur 0 1006.9 -0.8 95
2019-01-22 06:00:00 0.1 2 Sudeste 8 Sudoeste 0 1007.1 -0.2 94
2019-01-22 05:00:00 1 4 Sur 5 Sudeste 0 1007.4 -0.3 93
2019-01-22 04:00:00 1.1 2 Sur 6 Sudeste 0 1007.7 -0.7 92
2019-01-22 03:00:00 1.6 2 Sur 8 Sur 0 1007.3 -0.9 89
2019-01-22 02:00:00 1.9 3 Sudeste 6 Sudeste 0 1007.7 0.1 85
2019-01-22 01:00:00 3.1 0 Calma 7 Sudoeste 0 1008.4 1.2 81
2019-01-22 00:00:00 4.4 0 Calma 4 Noroeste 0 1008.2 1.1 76
2019-01-21 23:00:00 5.3 3 Nordeste 15 Noroeste 0 1007.6 1.2 71
2019-01-21 22:00:00 6.5 6 Norte 12 Noroeste 0 1007.2 1.5 67
2019-01-21 21:00:00 6.8 0 Calma 5 Nordeste 0 1007.1 1.4 65
2019-01-21 20:00:00 8.5 4 Sudoeste 7 Sudoeste 0 1006.4 0.7 57
2019-01-21 19:00:00 10.1 2 Noroeste 5 Noroeste 0 1005.7 -0.2 50
2019-01-21 18:00:00 13.5 3 Noroeste 5 Oeste 0 1005.7 -0.2 41
2019-01-21 17:00:00 15.5 3 Oeste 9 Nordeste 0 1005.7 -0.8 35
2019-01-21 16:00:00 14.9 3 Norte 13 Norte 0 1005.9 -1.1 37
2019-01-21 15:00:00 14.3 5 Nordeste 15 Nordeste 0 1005.9 -2.1 43
2019-01-21 14:00:00 13 4 Noroeste 11 Norte 0 1006.5 -1.1 50
2019-01-21 13:00:00 11.2 5 Norte 16 Norte 0 1007 -0.2 58
2019-01-21 12:00:00 9.1 2 Norte 6 Nordeste 0 1008 1.5 74
2019-01-21 11:00:00 6.4 0 Calma 5 Sudeste 0 1007.6 1.4 88
2019-01-21 10:00:00 3.3 3 Sudeste 6 Sur 0 1007.2 1.6 95
2019-01-21 09:00:00 0.7 0 Calma 4 Sur 0 1006.5 1.3 95
2019-01-21 08:00:00 1.3 4 Sudeste 6 Sudeste 0 1006.2 1.1 95
2019-01-21 07:00:00 1.6 2 Sudeste 4 Sudeste 0 1005.6 0.5 94
2019-01-21 06:00:00 1.9 2 Sur 6 Este 0 1005.2 0.3 92
2019-01-21 05:00:00 2.7 3 Sur 8 Norte 0 1005.1 0.1 90
2019-01-21 04:00:00 3.6 2 Este 6 Este 0 1005.1 0.2 87
2019-01-21 03:00:00 4.7 2 Noroeste 9 Oeste 0 1004.9 0.4 83
2019-01-21 02:00:00 5.3 6 Sudoeste 18 Sudeste 0 1005 1 83
2019-01-21 01:00:00 6.8 14 Noroeste 17 Noroeste 0 1004.9 1.5 79
2019-01-21 00:00:00 7.2 14 Noroeste 16 Noroeste 0 1004.5 1.5 79
2019-01-20 23:00:00 7.4 13 Noroeste 15 Noroeste 0 1004 1.8 78
2019-01-20 22:00:00 8.6 9 Noroeste 15 Noroeste 0 1003.4 2.2 73
2019-01-20 21:00:00 10.4 8 Norte 23 Noroeste 0 1003 2.6 64
2019-01-20 20:00:00 11.2 15 Noroeste 33 Norte 0 1002.2 2.3 62
2019-01-20 19:00:00 11.6 15 Noroeste 20 Noroeste 0 1001.2 1.6 59
2019-01-20 18:00:00 13.7 15 Noroeste 25 Norte 0 1000.4 1.4 50
2019-01-20 17:00:00 15.8 11 Norte 23 Norte 0 999.9 0.7 41
2019-01-20 16:00:00 15.6 15 Norte 30 Norte 0 999.6 0.2 47
2019-01-20 15:00:00 15.7 21 Noroeste 31 Noroeste 0 999 -0.3 53
2019-01-20 14:00:00 14.6 19 Noroeste 29 Noroeste 0 999.2 0.5 60
2019-01-20 13:00:00 12.5 21 Noroeste 29 Noroeste 0 999.4 1.8 70
2019-01-20 12:00:00 11.9 16 Oeste 26 Oeste 0 999.3 2.7 81
2019-01-20 11:00:00 11.5 17 Oeste 28 Oeste 0 998.7 2.6 85
2019-01-20 10:00:00 11.1 19 Oeste 32 Oeste 0 997.6 1.8 91
2019-01-20 09:00:00 10.9 21 Oeste 34 Oeste 0 996.6 0.7 94
2019-01-20 08:00:00 11 21 Oeste 35 Oeste 0 996.1 -0.3 94
2019-01-20 07:00:00 11.1 17 Oeste 37 Oeste 0 995.8 -1.3 94
2019-01-20 06:00:00 11.4 18 Oeste 37 Oeste 0 995.9 -1.3 94
2019-01-20 05:00:00 11.4 19 Oeste 34 Oeste 0 996.4 -0.8 94
2019-01-20 04:00:00 11.5 13 Oeste 29 Oeste 0 997.1 0.2 94
2019-01-20 03:00:00 11.2 19 Oeste 34 Oeste 0 997.2 -1 94
2019-01-20 02:00:00 11.6 22 Oeste 34 Oeste 0 997.2 -1.4 94
2019-01-20 01:00:00 12 15 Oeste 29 Sudoeste 2.1 996.9 -2.2 94
2019-01-20 00:00:00 11.9 9 Oeste 23 Oeste 1.5 998.2 -1.9 94
2019-01-19 23:00:00 11.7 15 Oeste 34 Sudoeste 0.8 998.6 -2.2 94
2019-01-19 22:00:00 10.3 7 Sur 11 Sur 0.7 999.1 -1.9 94
2019-01-19 21:00:00 10.1 6 Sur 12 Sur 0 1000.1 -1.6 93
2019-01-19 20:00:00 10.1 9 Sur 16 Sudoeste 0 1000.8 -1.3 92
2019-01-19 19:00:00 10 10 Sudoeste 15 Sudoeste 0 1001 -1.7 90
2019-01-19 18:00:00 10.1 8 Oeste 18 Oeste 0.4 1001.7 -1.3 88
2019-01-19 17:00:00 10.4 5 Oeste 10 Sudoeste 0.4 1002.1 -1.7 86
2019-01-19 16:00:00 10.4 6 Noroeste 15 Noroeste 0 1002.7 -1.7 84
2019-01-19 15:00:00 10.7 8 Oeste 15 Oeste 0.8 1003 -2.3 79
2019-01-19 14:00:00 11.3 0 Calma 6 Sur 0.1 1003.8 -1 70
2019-01-19 13:00:00 11.2 3 Este 11 Este 0 1004.4 0 73
2019-01-19 12:00:00 9.9 3 Noroeste 6 Este 0 1005.3 1.2 81
2019-01-19 11:00:00 8.5 3 Este 6 Este 0 1004.8 0.9 93
2019-01-19 10:00:00 7.8 0 Calma 4 Este 0 1004.4 0.7 96
2019-01-19 09:00:00 7.4 0 Calma 3 Este 0 1004.1 0.2 96
2019-01-19 08:00:00 7.4 3 Sudeste 5 Sudeste 0.1 1003.9 -0.2 95
2019-01-19 07:00:00 7.5 4 Sudoeste 9 Sudoeste 0.2 1003.7 -0.8 93
2019-01-19 06:00:00 7.9 7 Sudoeste 17 Oeste 0 1003.9 -0.6 85
2019-01-19 05:00:00 8.3 10 Oeste 21 Oeste 0 1004.1 -0.3 78
2019-01-19 04:00:00 8.9 10 Oeste 18 Oeste 0 1004.5 -0.3 67
2019-01-19 03:00:00 8.2 9 Oeste 17 Oeste 0 1004.5 -0.4 64
2019-01-19 02:00:00 8.9 13 Oeste 21 Oeste 0 1004.4 -0.4 62
2019-01-19 01:00:00 9.7 12 Oeste 22 Oeste 0 1004.8 0.5 59
2019-01-19 00:00:00 9.9 14 Oeste 24 Oeste 0 1004.9 0.7 59